sensor_id;sensor_type;location;lat;lon;timestamp;P1;durP1;ratioP1;P2;durP2;ratioP2
52620;SDS011;38515;53.160;6.990;2023-09-19T00:01:39;475.58;;;441.42;;
52620;SDS011;38515;53.160;6.990;2023-09-19T00:04:06;476.88;;;444.75;;
52620;SDS011;38515;53.160;6.990;2023-09-19T00:06:36;448.92;;;416.10;;
52620;SDS011;38515;53.160;6.990;2023-09-19T00:09:03;536.08;;;493.75;;
52620;SDS011;38515;53.160;6.990;2023-09-19T00:11:29;488.70;;;452.48;;
52620;SDS011;38515;53.160;6.990;2023-09-19T00:13:56;470.83;;;438.38;;
52620;SDS011;38515;53.160;6.990;2023-09-19T00:16:24;427.92;;;398.60;;
52620;SDS011;38515;53.160;6.990;2023-09-19T00:18:51;438.05;;;408.80;;
52620;SDS011;38515;53.160;6.990;2023-09-19T00:21:17;506.30;;;465.48;;
52620;SDS011;38515;53.160;6.990;2023-09-19T00:23:44;535.28;;;492.42;;
52620;SDS011;38515;53.160;6.990;2023-09-19T00:26:10;447.25;;;416.00;;
52620;SDS011;38515;53.160;6.990;2023-09-19T00:28:36;490.23;;;451.42;;
52620;SDS011;38515;53.160;6.990;2023-09-19T00:31:02;496.48;;;459.17;;
52620;SDS011;38515;53.160;6.990;2023-09-19T00:33:28;450.20;;;421.35;;
52620;SDS011;38515;53.160;6.990;2023-09-19T00:35:56;442.95;;;410.90;;
52620;SDS011;38515;53.160;6.990;2023-09-19T00:38:22;430.30;;;402.88;;
52620;SDS011;38515;53.160;6.990;2023-09-19T00:40:52;538.22;;;497.10;;
52620;SDS011;38515;53.160;6.990;2023-09-19T00:43:19;471.25;;;436.52;;
52620;SDS011;38515;53.160;6.990;2023-09-19T00:45:47;547.78;;;503.13;;
52620;SDS011;38515;53.160;6.990;2023-09-19T00:48:16;506.40;;;471.60;;
52620;SDS011;38515;53.160;6.990;2023-09-19T00:50:43;480.10;;;447.33;;
52620;SDS011;38515;53.160;6.990;2023-09-19T00:53:13;461.33;;;427.15;;
52620;SDS011;38515;53.160;6.990;2023-09-19T00:55:40;486.98;;;450.10;;
52620;SDS011;38515;53.160;6.990;2023-09-19T00:58:08;442.50;;;414.55;;
52620;SDS011;38515;53.160;6.990;2023-09-19T01:00:35;475.55;;;442.13;;
52620;SDS011;38515;53.160;6.990;2023-09-19T01:03:01;440.52;;;411.25;;
52620;SDS011;38515;53.160;6.990;2023-09-19T01:05:28;428.95;;;402.10;;
52620;SDS011;38515;53.160;6.990;2023-09-19T01:07:54;489.33;;;452.75;;
52620;SDS011;38515;53.160;6.990;2023-09-19T01:10:21;424.90;;;397.67;;
52620;SDS011;38515;53.160;6.990;2023-09-19T01:12:50;495.60;;;458.58;;
52620;SDS011;38515;53.160;6.990;2023-09-19T01:20:37;452.67;;;424.10;;
52620;SDS011;38515;53.160;6.990;2023-09-19T01:23:23;430.25;;;403.17;;
52620;SDS011;38515;53.160;6.990;2023-09-19T01:31:24;468.60;;;435.38;;
52620;SDS011;38515;53.160;6.990;2023-09-19T01:34:03;522.03;;;483.13;;
52620;SDS011;38515;53.160;6.990;2023-09-19T01:36:33;456.60;;;423.85;;
52620;SDS011;38515;53.160;6.990;2023-09-19T01:39:07;500.23;;;465.20;;
52620;SDS011;38515;53.160;6.990;2023-09-19T01:42:24;457.70;;;427.43;;
52620;SDS011;38515;53.160;6.990;2023-09-19T01:44:49;436.17;;;409.70;;
52620;SDS011;38515;53.160;6.990;2023-09-19T01:47:23;433.00;;;404.80;;
52620;SDS011;38515;53.160;6.990;2023-09-19T01:52:39;371.63;;;350.30;;
52620;SDS011;38515;53.160;6.990;2023-09-19T01:55:20;490.95;;;455.60;;
52620;SDS011;38515;53.160;6.990;2023-09-19T02:00:38;420.13;;;393.05;;
52620;SDS011;38515;53.160;6.990;2023-09-19T02:03:08;382.48;;;357.88;;
52620;SDS011;38515;53.160;6.990;2023-09-19T02:05:35;407.13;;;383.92;;
52620;SDS011;38515;53.160;6.990;2023-09-19T02:08:01;422.40;;;395.52;;
52620;SDS011;38515;53.160;6.990;2023-09-19T02:10:27;359.70;;;339.35;;
52620;SDS011;38515;53.160;6.990;2023-09-19T02:12:53;432.17;;;406.30;;
52620;SDS011;38515;53.160;6.990;2023-09-19T02:15:19;397.40;;;374.42;;
52620;SDS011;38515;53.160;6.990;2023-09-19T02:17:45;475.10;;;441.35;;
52620;SDS011;38515;53.160;6.990;2023-09-19T02:20:11;444.45;;;416.02;;
52620;SDS011;38515;53.160;6.990;2023-09-19T02:22:39;446.80;;;416.13;;
52620;SDS011;38515;53.160;6.990;2023-09-19T02:25:07;417.35;;;392.90;;
52620;SDS011;38515;53.160;6.990;2023-09-19T02:27:34;444.48;;;415.10;;
52620;SDS011;38515;53.160;6.990;2023-09-19T02:29:59;413.92;;;389.00;;
52620;SDS011;38515;53.160;6.990;2023-09-19T02:32:29;423.23;;;397.90;;
52620;SDS011;38515;53.160;6.990;2023-09-19T02:35:01;453.13;;;422.27;;
52620;SDS011;38515;53.160;6.990;2023-09-19T02:37:29;440.35;;;412.38;;
52620;SDS011;38515;53.160;6.990;2023-09-19T02:39:56;397.45;;;373.65;;
52620;SDS011;38515;53.160;6.990;2023-09-19T02:42:22;457.85;;;425.30;;
52620;SDS011;38515;53.160;6.990;2023-09-19T02:44:48;441.55;;;413.55;;
52620;SDS011;38515;53.160;6.990;2023-09-19T02:47:13;394.95;;;370.60;;
52620;SDS011;38515;53.160;6.990;2023-09-19T02:49:41;449.80;;;422.90;;
52620;SDS011;38515;53.160;6.990;2023-09-19T02:52:08;424.45;;;396.92;;
52620;SDS011;38515;53.160;6.990;2023-09-19T02:54:33;405.55;;;380.42;;
52620;SDS011;38515;53.160;6.990;2023-09-19T02:56:59;411.77;;;385.05;;
52620;SDS011;38515;53.160;6.990;2023-09-19T02:59:25;438.52;;;409.92;;
52620;SDS011;38515;53.160;6.990;2023-09-19T03:01:51;407.65;;;383.38;;
52620;SDS011;38515;53.160;6.990;2023-09-19T03:04:19;349.75;;;328.27;;
52620;SDS011;38515;53.160;6.990;2023-09-19T03:06:45;495.27;;;461.42;;
52620;SDS011;38515;53.160;6.990;2023-09-19T03:09:11;416.40;;;389.77;;
52620;SDS011;38515;53.160;6.990;2023-09-19T03:11:39;474.02;;;440.75;;
52620;SDS011;38515;53.160;6.990;2023-09-19T03:14:05;481.00;;;448.30;;
52620;SDS011;38515;53.160;6.990;2023-09-19T03:16:31;397.35;;;371.17;;
52620;SDS011;38515;53.160;6.990;2023-09-19T03:18:58;472.77;;;441.00;;
52620;SDS011;38515;53.160;6.990;2023-09-19T03:21:25;500.23;;;466.98;;
52620;SDS011;38515;53.160;6.990;2023-09-19T03:23:50;395.88;;;371.17;;
52620;SDS011;38515;53.160;6.990;2023-09-19T03:26:17;429.67;;;401.48;;
52620;SDS011;38515;53.160;6.990;2023-09-19T03:28:43;398.92;;;375.05;;
52620;SDS011;38515;53.160;6.990;2023-09-19T03:31:09;406.27;;;381.30;;
52620;SDS011;38515;53.160;6.990;2023-09-19T03:33:36;418.35;;;392.77;;
52620;SDS011;38515;53.160;6.990;2023-09-19T03:36:02;429.80;;;402.83;;
52620;SDS011;38515;53.160;6.990;2023-09-19T03:38:32;433.92;;;407.20;;
52620;SDS011;38515;53.160;6.990;2023-09-19T03:41:01;462.08;;;432.27;;
52620;SDS011;38515;53.160;6.990;2023-09-19T03:43:28;380.13;;;356.95;;
52620;SDS011;38515;53.160;6.990;2023-09-19T03:45:54;450.30;;;423.02;;
52620;SDS011;38515;53.160;6.990;2023-09-19T03:48:19;483.13;;;451.88;;
52620;SDS011;38515;53.160;6.990;2023-09-19T03:50:47;465.27;;;437.02;;
52620;SDS011;38515;53.160;6.990;2023-09-19T03:53:13;456.35;;;428.75;;
52620;SDS011;38515;53.160;6.990;2023-09-19T03:55:38;450.08;;;422.73;;
52620;SDS011;38515;53.160;6.990;2023-09-19T03:58:04;483.73;;;452.60;;
52620;SDS011;38515;53.160;6.990;2023-09-19T04:00:31;473.08;;;442.25;;
52620;SDS011;38515;53.160;6.990;2023-09-19T04:02:57;416.15;;;391.40;;
52620;SDS011;38515;53.160;6.990;2023-09-19T04:05:23;457.75;;;430.08;;
52620;SDS011;38515;53.160;6.990;2023-09-19T04:07:49;414.35;;;386.52;;
52620;SDS011;38515;53.160;6.990;2023-09-19T04:10:15;441.55;;;410.50;;
52620;SDS011;38515;53.160;6.990;2023-09-19T04:12:59;473.42;;;441.70;;
52620;SDS011;38515;53.160;6.990;2023-09-19T04:15:25;429.33;;;403.45;;
52620;SDS011;38515;53.160;6.990;2023-09-19T04:17:51;499.52;;;466.55;;
52620;SDS011;38515;53.160;6.990;2023-09-19T04:20:17;515.08;;;479.83;;
52620;SDS011;38515;53.160;6.990;2023-09-19T04:22:50;381.67;;;358.75;;
52620;SDS011;38515;53.160;6.990;2023-09-19T04:25:16;418.80;;;391.52;;
52620;SDS011;38515;53.160;6.990;2023-09-19T04:27:43;469.55;;;439.17;;
52620;SDS011;38515;53.160;6.990;2023-09-19T04:30:09;504.13;;;469.80;;
52620;SDS011;38515;53.160;6.990;2023-09-19T04:32:37;456.17;;;428.45;;
52620;SDS011;38515;53.160;6.990;2023-09-19T04:35:08;441.02;;;414.73;;
52620;SDS011;38515;53.160;6.990;2023-09-19T04:37:36;419.80;;;394.85;;
52620;SDS011;38515;53.160;6.990;2023-09-19T04:40:07;479.60;;;449.50;;
52620;SDS011;38515;53.160;6.990;2023-09-19T04:42:38;348.75;;;329.15;;
52620;SDS011;38515;53.160;6.990;2023-09-19T04:45:05;427.98;;;400.45;;
52620;SDS011;38515;53.160;6.990;2023-09-19T04:47:32;369.90;;;347.77;;
52620;SDS011;38515;53.160;6.990;2023-09-19T04:49:58;415.27;;;388.60;;
52620;SDS011;38515;53.160;6.990;2023-09-19T04:52:24;420.50;;;392.95;;
52620;SDS011;38515;53.160;6.990;2023-09-19T04:54:50;461.13;;;429.42;;
52620;SDS011;38515;53.160;6.990;2023-09-19T04:57:16;477.73;;;447.98;;
52620;SDS011;38515;53.160;6.990;2023-09-19T04:59:41;468.30;;;438.17;;
52620;SDS011;38515;53.160;6.990;2023-09-19T05:02:07;452.00;;;423.25;;
52620;SDS011;38515;53.160;6.990;2023-09-19T05:04:33;424.35;;;397.80;;
52620;SDS011;38515;53.160;6.990;2023-09-19T05:06:59;438.75;;;411.63;;
52620;SDS011;38515;53.160;6.990;2023-09-19T05:09:28;427.40;;;401.23;;
52620;SDS011;38515;53.160;6.990;2023-09-19T05:11:54;437.45;;;410.27;;
52620;SDS011;38515;53.160;6.990;2023-09-19T05:14:22;458.20;;;430.83;;
52620;SDS011;38515;53.160;6.990;2023-09-19T05:16:49;443.15;;;414.75;;
52620;SDS011;38515;53.160;6.990;2023-09-19T05:19:15;419.63;;;394.65;;
52620;SDS011;38515;53.160;6.990;2023-09-19T05:21:42;422.55;;;396.48;;
52620;SDS011;38515;53.160;6.990;2023-09-19T05:24:08;492.02;;;459.65;;
52620;SDS011;38515;53.160;6.990;2023-09-19T05:26:33;406.77;;;381.95;;
52620;SDS011;38515;53.160;6.990;2023-09-19T05:28:59;440.20;;;410.50;;
52620;SDS011;38515;53.160;6.990;2023-09-19T05:31:27;413.55;;;386.90;;
52620;SDS011;38515;53.160;6.990;2023-09-19T05:33:53;530.03;;;492.67;;
52620;SDS011;38515;53.160;6.990;2023-09-19T05:36:20;488.77;;;457.67;;
52620;SDS011;38515;53.160;6.990;2023-09-19T05:38:46;459.95;;;432.30;;
52620;SDS011;38515;53.160;6.990;2023-09-19T05:41:15;567.28;;;527.40;;
52620;SDS011;38515;53.160;6.990;2023-09-19T05:43:41;511.63;;;478.33;;
52620;SDS011;38515;53.160;6.990;2023-09-19T05:46:07;446.45;;;418.30;;
52620;SDS011;38515;53.160;6.990;2023-09-19T05:48:33;348.27;;;326.50;;
52620;SDS011;38515;53.160;6.990;2023-09-19T05:50:59;510.55;;;476.05;;
52620;SDS011;38515;53.160;6.990;2023-09-19T05:53:26;352.02;;;329.83;;
52620;SDS011;38515;53.160;6.990;2023-09-19T05:55:52;416.60;;;391.00;;
52620;SDS011;38515;53.160;6.990;2023-09-19T05:58:18;518.05;;;482.48;;
52620;SDS011;38515;53.160;6.990;2023-09-19T06:00:45;425.25;;;397.85;;
52620;SDS011;38515;53.160;6.990;2023-09-19T06:03:13;427.92;;;401.33;;
52620;SDS011;38515;53.160;6.990;2023-09-19T06:05:39;399.58;;;371.60;;
52620;SDS011;38515;53.160;6.990;2023-09-19T06:08:06;416.95;;;391.38;;
52620;SDS011;38515;53.160;6.990;2023-09-19T06:10:35;463.02;;;433.02;;
52620;SDS011;38515;53.160;6.990;2023-09-19T06:13:02;480.85;;;448.67;;
52620;SDS011;38515;53.160;6.990;2023-09-19T06:15:35;422.55;;;393.38;;
52620;SDS011;38515;53.160;6.990;2023-09-19T06:18:01;433.23;;;403.20;;
52620;SDS011;38515;53.160;6.990;2023-09-19T06:20:30;457.05;;;425.48;;
52620;SDS011;38515;53.160;6.990;2023-09-19T06:22:56;471.27;;;436.98;;
52620;SDS011;38515;53.160;6.990;2023-09-19T06:25:22;419.90;;;392.88;;
52620;SDS011;38515;53.160;6.990;2023-09-19T06:27:48;410.20;;;383.05;;
52620;SDS011;38515;53.160;6.990;2023-09-19T06:30:17;506.08;;;470.42;;
52620;SDS011;38515;53.160;6.990;2023-09-19T06:32:43;424.65;;;397.35;;
52620;SDS011;38515;53.160;6.990;2023-09-19T06:35:13;434.40;;;404.30;;
52620;SDS011;38515;53.160;6.990;2023-09-19T06:37:40;358.00;;;333.42;;
52620;SDS011;38515;53.160;6.990;2023-09-19T06:40:11;392.83;;;362.30;;
52620;SDS011;38515;53.160;6.990;2023-09-19T06:43:12;454.13;;;422.58;;
52620;SDS011;38515;53.160;6.990;2023-09-19T06:45:31;419.48;;;393.20;;
52620;SDS011;38515;53.160;6.990;2023-09-19T06:47:57;443.35;;;411.33;;
52620;SDS011;38515;53.160;6.990;2023-09-19T06:50:25;441.30;;;409.00;;
52620;SDS011;38515;53.160;6.990;2023-09-19T06:52:55;510.80;;;469.80;;
52620;SDS011;38515;53.160;6.990;2023-09-19T06:55:22;472.60;;;436.52;;
52620;SDS011;38515;53.160;6.990;2023-09-19T06:57:53;590.40;;;545.42;;
52620;SDS011;38515;53.160;6.990;2023-09-19T07:00:19;594.10;;;549.08;;
52620;SDS011;38515;53.160;6.990;2023-09-19T07:05:29;449.40;;;417.63;;
52620;SDS011;38515;53.160;6.990;2023-09-19T07:08:01;562.85;;;519.35;;
52620;SDS011;38515;53.160;6.990;2023-09-19T07:10:27;450.33;;;420.30;;
52620;SDS011;38515;53.160;6.990;2023-09-19T07:13:00;440.25;;;412.35;;
52620;SDS011;38515;53.160;6.990;2023-09-19T07:15:28;444.90;;;414.03;;
52620;SDS011;38515;53.160;6.990;2023-09-19T07:17:55;465.38;;;432.88;;
52620;SDS011;38515;53.160;6.990;2023-09-19T07:20:22;398.05;;;372.02;;
52620;SDS011;38515;53.160;6.990;2023-09-19T07:22:52;191.13;;;180.95;;
52620;SDS011;38515;53.160;6.990;2023-09-19T07:25:20;261.58;;;247.68;;
52620;SDS011;38515;53.160;6.990;2023-09-19T07:27:46;305.05;;;287.20;;
52620;SDS011;38515;53.160;6.990;2023-09-19T07:30:12;471.77;;;440.08;;
52620;SDS011;38515;53.160;6.990;2023-09-19T07:32:40;326.60;;;306.25;;
52620;SDS011;38515;53.160;6.990;2023-09-19T07:35:06;261.50;;;246.13;;
52620;SDS011;38515;53.160;6.990;2023-09-19T07:37:32;246.80;;;234.10;;
52620;SDS011;38515;53.160;6.990;2023-09-19T07:40:04;380.52;;;358.65;;
52620;SDS011;38515;53.160;6.990;2023-09-19T07:42:34;355.60;;;334.83;;
52620;SDS011;38515;53.160;6.990;2023-09-19T07:45:04;293.05;;;276.63;;
52620;SDS011;38515;53.160;6.990;2023-09-19T07:47:30;251.32;;;237.75;;
52620;SDS011;38515;53.160;6.990;2023-09-19T07:49:58;149.23;;;141.98;;
52620;SDS011;38515;53.160;6.990;2023-09-19T07:52:24;226.60;;;214.23;;
52620;SDS011;38515;53.160;6.990;2023-09-19T07:54:53;240.25;;;227.63;;
52620;SDS011;38515;53.160;6.990;2023-09-19T07:57:19;264.80;;;250.77;;
52620;SDS011;38515;53.160;6.990;2023-09-19T07:59:45;195.07;;;185.00;;
52620;SDS011;38515;53.160;6.990;2023-09-19T08:02:11;415.38;;;390.02;;
52620;SDS011;38515;53.160;6.990;2023-09-19T08:04:43;380.35;;;357.52;;
52620;SDS011;38515;53.160;6.990;2023-09-19T08:07:11;190.20;;;180.88;;
52620;SDS011;38515;53.160;6.990;2023-09-19T08:09:38;223.02;;;211.73;;
52620;SDS011;38515;53.160;6.990;2023-09-19T08:12:05;200.25;;;190.75;;
52620;SDS011;38515;53.160;6.990;2023-09-19T08:14:38;372.45;;;350.27;;
52620;SDS011;38515;53.160;6.990;2023-09-19T08:17:07;221.23;;;209.85;;
52620;SDS011;38515;53.160;6.990;2023-09-19T08:19:33;214.73;;;204.38;;
52620;SDS011;38515;53.160;6.990;2023-09-19T08:21:59;209.18;;;198.63;;
52620;SDS011;38515;53.160;6.990;2023-09-19T08:24:32;307.98;;;291.60;;
52620;SDS011;38515;53.160;6.990;2023-09-19T08:26:59;299.55;;;283.52;;
52620;SDS011;38515;53.160;6.990;2023-09-19T08:29:26;168.60;;;160.88;;
52620;SDS011;38515;53.160;6.990;2023-09-19T08:31:55;271.75;;;256.85;;
52620;SDS011;38515;53.160;6.990;2023-09-19T08:34:24;214.85;;;204.57;;
52620;SDS011;38515;53.160;6.990;2023-09-19T08:36:53;182.93;;;173.80;;
52620;SDS011;38515;53.160;6.990;2023-09-19T08:39:23;235.23;;;223.73;;
52620;SDS011;38515;53.160;6.990;2023-09-19T08:42:00;226.77;;;216.10;;
52620;SDS011;38515;53.160;6.990;2023-09-19T08:44:26;121.50;;;115.97;;
52620;SDS011;38515;53.160;6.990;2023-09-19T08:46:57;240.70;;;228.27;;
52620;SDS011;38515;53.160;6.990;2023-09-19T08:49:59;261.73;;;248.35;;
52620;SDS011;38515;53.160;6.990;2023-09-19T08:55:02;163.73;;;155.63;;
52620;SDS011;38515;53.160;6.990;2023-09-19T08:57:35;198.05;;;188.40;;
52620;SDS011;38515;53.160;6.990;2023-09-19T09:00:07;208.27;;;197.82;;
52620;SDS011;38515;53.160;6.990;2023-09-19T09:02:40;124.20;;;118.13;;
52620;SDS011;38515;53.160;6.990;2023-09-19T09:05:11;257.40;;;244.20;;
52620;SDS011;38515;53.160;6.990;2023-09-19T09:07:40;285.85;;;270.73;;
52620;SDS011;38515;53.160;6.990;2023-09-19T09:10:06;188.57;;;179.75;;
52620;SDS011;38515;53.160;6.990;2023-09-19T09:12:33;247.13;;;234.05;;
52620;SDS011;38515;53.160;6.990;2023-09-19T09:15:01;214.10;;;203.48;;
52620;SDS011;38515;53.160;6.990;2023-09-19T09:17:29;200.85;;;191.15;;
52620;SDS011;38515;53.160;6.990;2023-09-19T09:19:55;210.50;;;199.70;;
52620;SDS011;38515;53.160;6.990;2023-09-19T09:22:22;274.63;;;260.15;;
52620;SDS011;38515;53.160;6.990;2023-09-19T09:24:56;219.38;;;208.38;;
52620;SDS011;38515;53.160;6.990;2023-09-19T09:27:30;269.77;;;256.20;;
52620;SDS011;38515;53.160;6.990;2023-09-19T09:29:57;310.13;;;292.55;;
52620;SDS011;38515;53.160;6.990;2023-09-19T09:32:24;283.17;;;267.63;;
52620;SDS011;38515;53.160;6.990;2023-09-19T09:37:21;300.08;;;282.80;;
52620;SDS011;38515;53.160;6.990;2023-09-19T09:39:51;238.02;;;225.32;;
52620;SDS011;38515;53.160;6.990;2023-09-19T09:42:37;202.52;;;192.25;;
52620;SDS011;38515;53.160;6.990;2023-09-19T09:45:13;174.38;;;165.60;;
52620;SDS011;38515;53.160;6.990;2023-09-19T09:47:43;162.73;;;155.27;;
52620;SDS011;38515;53.160;6.990;2023-09-19T09:50:27;339.40;;;319.55;;
52620;SDS011;38515;53.160;6.990;2023-09-19T09:53:03;286.27;;;270.67;;
52620;SDS011;38515;53.160;6.990;2023-09-19T09:55:56;372.50;;;350.25;;
52620;SDS011;38515;53.160;6.990;2023-09-19T09:58:27;146.93;;;139.68;;
52620;SDS011;38515;53.160;6.990;2023-09-19T10:00:58;153.73;;;145.95;;
52620;SDS011;38515;53.160;6.990;2023-09-19T10:03:30;256.17;;;242.35;;
52620;SDS011;38515;53.160;6.990;2023-09-19T10:06:04;301.92;;;285.73;;
52620;SDS011;38515;53.160;6.990;2023-09-19T10:08:36;284.35;;;269.95;;
52620;SDS011;38515;53.160;6.990;2023-09-19T10:11:15;329.92;;;311.83;;
52620;SDS011;38515;53.160;6.990;2023-09-19T10:13:41;217.20;;;205.82;;
52620;SDS011;38515;53.160;6.990;2023-09-19T10:16:11;267.15;;;252.55;;
52620;SDS011;38515;53.160;6.990;2023-09-19T10:18:39;229.10;;;217.32;;
52620;SDS011;38515;53.160;6.990;2023-09-19T10:21:08;278.10;;;262.83;;
52620;SDS011;38515;53.160;6.990;2023-09-19T10:23:36;220.45;;;209.18;;
52620;SDS011;38515;53.160;6.990;2023-09-19T10:26:03;219.75;;;209.48;;
52620;SDS011;38515;53.160;6.990;2023-09-19T10:28:30;179.80;;;170.95;;
52620;SDS011;38515;53.160;6.990;2023-09-19T10:30:57;166.98;;;158.75;;
52620;SDS011;38515;53.160;6.990;2023-09-19T10:33:25;220.30;;;209.07;;
52620;SDS011;38515;53.160;6.990;2023-09-19T10:35:51;187.20;;;177.60;;
52620;SDS011;38515;53.160;6.990;2023-09-19T10:38:24;183.32;;;174.02;;
52620;SDS011;38515;53.160;6.990;2023-09-19T10:40:58;165.45;;;156.80;;
52620;SDS011;38515;53.160;6.990;2023-09-19T10:43:29;209.35;;;198.48;;
52620;SDS011;38515;53.160;6.990;2023-09-19T10:46:01;173.20;;;164.60;;
52620;SDS011;38515;53.160;6.990;2023-09-19T10:48:31;450.42;;;419.98;;
52620;SDS011;38515;53.160;6.990;2023-09-19T10:53:24;361.50;;;338.23;;
52620;SDS011;38515;53.160;6.990;2023-09-19T10:55:57;448.02;;;416.52;;
52620;SDS011;38515;53.160;6.990;2023-09-19T10:58:29;401.40;;;373.50;;
52620;SDS011;38515;53.160;6.990;2023-09-19T11:00:59;405.85;;;377.60;;
52620;SDS011;38515;53.160;6.990;2023-09-19T11:03:32;400.80;;;375.38;;
52620;SDS011;38515;53.160;6.990;2023-09-19T11:06:05;421.15;;;393.58;;
52620;SDS011;38515;53.160;6.990;2023-09-19T11:08:57;444.00;;;415.08;;
52620;SDS011;38515;53.160;6.990;2023-09-19T11:11:40;283.55;;;266.58;;
52620;SDS011;38515;53.160;6.990;2023-09-19T11:30:34;350.23;;;327.90;;
52620;SDS011;38515;53.160;6.990;2023-09-19T11:36:03;470.52;;;438.80;;
52620;SDS011;38515;53.160;6.990;2023-09-19T11:43:51;321.75;;;303.25;;
52620;SDS011;38515;53.160;6.990;2023-09-19T11:46:19;344.33;;;325.17;;
52620;SDS011;38515;53.160;6.990;2023-09-19T11:48:49;394.45;;;368.33;;
52620;SDS011;38515;53.160;6.990;2023-09-19T11:51:17;414.30;;;387.92;;
52620;SDS011;38515;53.160;6.990;2023-09-19T11:54:01;400.27;;;373.55;;
52620;SDS011;38515;53.160;6.990;2023-09-19T11:56:29;383.30;;;360.63;;
52620;SDS011;38515;53.160;6.990;2023-09-19T11:58:56;324.95;;;301.77;;
52620;SDS011;38515;53.160;6.990;2023-09-19T12:01:31;251.35;;;235.98;;
52620;SDS011;38515;53.160;6.990;2023-09-19T12:04:00;382.77;;;358.02;;
52620;SDS011;38515;53.160;6.990;2023-09-19T12:06:29;354.63;;;333.48;;
52620;SDS011;38515;53.160;6.990;2023-09-19T12:08:57;328.77;;;309.30;;
52620;SDS011;38515;53.160;6.990;2023-09-19T12:11:26;476.63;;;443.95;;
52620;SDS011;38515;53.160;6.990;2023-09-19T12:13:59;326.98;;;308.10;;
52620;SDS011;38515;53.160;6.990;2023-09-19T12:16:26;358.95;;;335.92;;
52620;SDS011;38515;53.160;6.990;2023-09-19T12:18:56;412.42;;;388.23;;
52620;SDS011;38515;53.160;6.990;2023-09-19T12:21:23;381.40;;;356.65;;
52620;SDS011;38515;53.160;6.990;2023-09-19T12:24:11;359.73;;;336.88;;
52620;SDS011;38515;53.160;6.990;2023-09-19T12:26:45;437.15;;;407.33;;
52620;SDS011;38515;53.160;6.990;2023-09-19T12:29:20;388.13;;;364.38;;
52620;SDS011;38515;53.160;6.990;2023-09-19T12:31:54;358.15;;;334.50;;
52620;SDS011;38515;53.160;6.990;2023-09-19T12:34:25;286.35;;;270.10;;
52620;SDS011;38515;53.160;6.990;2023-09-19T12:37:12;287.17;;;271.02;;
52620;SDS011;38515;53.160;6.990;2023-09-19T12:39:52;322.30;;;303.90;;
52620;SDS011;38515;53.160;6.990;2023-09-19T12:42:25;286.58;;;268.98;;
52620;SDS011;38515;53.160;6.990;2023-09-19T12:44:57;401.65;;;375.05;;
52620;SDS011;38515;53.160;6.990;2023-09-19T12:47:26;346.20;;;325.23;;
52620;SDS011;38515;53.160;6.990;2023-09-19T12:52:54;376.42;;;353.33;;
52620;SDS011;38515;53.160;6.990;2023-09-19T12:55:28;299.40;;;281.63;;
52620;SDS011;38515;53.160;6.990;2023-09-19T12:58:13;288.27;;;273.30;;
52620;SDS011;38515;53.160;6.990;2023-09-19T13:00:45;223.45;;;210.85;;
52620;SDS011;38515;53.160;6.990;2023-09-19T13:08:29;266.65;;;252.85;;
52620;SDS011;38515;53.160;6.990;2023-09-19T13:11:10;353.63;;;332.27;;
52620;SDS011;38515;53.160;6.990;2023-09-19T13:16:18;354.73;;;333.50;;
52620;SDS011;38515;53.160;6.990;2023-09-19T13:18:49;322.52;;;304.48;;
52620;SDS011;38515;53.160;6.990;2023-09-19T13:21:27;244.25;;;231.48;;
52620;SDS011;38515;53.160;6.990;2023-09-19T13:24:18;197.32;;;187.18;;
52620;SDS011;38515;53.160;6.990;2023-09-19T13:26:55;364.48;;;342.13;;
52620;SDS011;38515;53.160;6.990;2023-09-19T13:29:22;128.85;;;122.40;;
52620;SDS011;38515;53.160;6.990;2023-09-19T13:31:48;286.35;;;271.27;;
52620;SDS011;38515;53.160;6.990;2023-09-19T13:34:15;240.77;;;227.35;;
52620;SDS011;38515;53.160;6.990;2023-09-19T13:36:42;144.93;;;137.75;;
52620;SDS011;38515;53.160;6.990;2023-09-19T13:39:09;236.05;;;223.68;;
52620;SDS011;38515;53.160;6.990;2023-09-19T13:41:35;146.93;;;139.57;;
52620;SDS011;38515;53.160;6.990;2023-09-19T13:44:04;185.05;;;175.52;;
52620;SDS011;38515;53.160;6.990;2023-09-19T13:46:30;143.35;;;136.35;;
52620;SDS011;38515;53.160;6.990;2023-09-19T13:48:58;273.10;;;258.23;;
52620;SDS011;38515;53.160;6.990;2023-09-19T13:51:28;201.35;;;190.38;;
52620;SDS011;38515;53.160;6.990;2023-09-19T13:53:55;122.90;;;117.47;;
52620;SDS011;38515;53.160;6.990;2023-09-19T13:56:21;191.38;;;181.82;;
52620;SDS011;38515;53.160;6.990;2023-09-19T13:58:47;168.98;;;161.40;;
52620;SDS011;38515;53.160;6.990;2023-09-19T14:01:13;235.98;;;222.93;;
52620;SDS011;38515;53.160;6.990;2023-09-19T14:03:39;202.35;;;192.43;;
52620;SDS011;38515;53.160;6.990;2023-09-19T14:06:06;133.13;;;126.78;;
52620;SDS011;38515;53.160;6.990;2023-09-19T14:08:32;164.82;;;156.50;;
52620;SDS011;38515;53.160;6.990;2023-09-19T14:11:05;91.13;;;85.82;;
52620;SDS011;38515;53.160;6.990;2023-09-19T14:13:32;171.88;;;163.73;;
52620;SDS011;38515;53.160;6.990;2023-09-19T14:15:57;131.30;;;124.95;;
52620;SDS011;38515;53.160;6.990;2023-09-19T14:18:32;97.10;;;92.45;;
52620;SDS011;38515;53.160;6.990;2023-09-19T14:20:58;115.15;;;108.63;;
52620;SDS011;38515;53.160;6.990;2023-09-19T14:23:29;135.05;;;128.52;;
52620;SDS011;38515;53.160;6.990;2023-09-19T14:26:00;107.82;;;102.75;;
52620;SDS011;38515;53.160;6.990;2023-09-19T14:28:26;96.88;;;92.13;;
52620;SDS011;38515;53.160;6.990;2023-09-19T14:30:52;314.77;;;297.60;;
52620;SDS011;38515;53.160;6.990;2023-09-19T14:33:18;76.68;;;72.45;;
52620;SDS011;38515;53.160;6.990;2023-09-19T14:35:44;100.05;;;95.43;;
52620;SDS011;38515;53.160;6.990;2023-09-19T14:38:09;137.05;;;130.90;;
52620;SDS011;38515;53.160;6.990;2023-09-19T14:40:35;87.80;;;83.40;;
52620;SDS011;38515;53.160;6.990;2023-09-19T14:43:02;128.65;;;121.78;;
52620;SDS011;38515;53.160;6.990;2023-09-19T14:45:29;181.20;;;172.90;;
52620;SDS011;38515;53.160;6.990;2023-09-19T14:47:56;130.32;;;123.85;;
52620;SDS011;38515;53.160;6.990;2023-09-19T14:50:22;219.82;;;208.48;;
52620;SDS011;38515;53.160;6.990;2023-09-19T14:52:49;182.52;;;173.40;;
52620;SDS011;38515;53.160;6.990;2023-09-19T14:55:16;174.38;;;166.05;;
52620;SDS011;38515;53.160;6.990;2023-09-19T14:57:48;181.52;;;173.25;;
52620;SDS011;38515;53.160;6.990;2023-09-19T15:00:16;126.15;;;120.25;;
52620;SDS011;38515;53.160;6.990;2023-09-19T15:02:45;172.63;;;164.20;;
52620;SDS011;38515;53.160;6.990;2023-09-19T15:05:13;137.90;;;131.27;;
52620;SDS011;38515;53.160;6.990;2023-09-19T15:07:47;364.77;;;344.50;;
52620;SDS011;38515;53.160;6.990;2023-09-19T15:10:15;349.48;;;329.92;;